Strona główna
METAR-TAF:

METAR-TAF

Lotnisko :

Port lotniczy Graz

Graz, Austria

Szerokość geograficzna: 47-00N, Długość geograficzna: 015-26E, wysokość: 340 m

Aktualna obserwacja pogody

Raport powstał 22 minut temu, godzina 19:20 UTC
Wiatr 4 kt od zachodnio-północny zachód
Temperatura 12°C
Wilgotność 50%
Ciśnienie 1018 hPa
Widzialność 10 km lub więcej

METAR: LOWG 301920Z AUTO 30004KT 9999 NSC 12/02 Q1018

czas: 21:42 (19:42 UTC)

Prognoza

Raport powstał 2 godziny i 27 minut temu, godzina 17:15 UTC
Prognoza ważna od 30 godzina 18 UTC do 31 godzina 18 UTC
Wiatr 5 kt z kierunków zmiennych
Widzialność 10 km lub więcej
Mało chmury na wysokości 6000 ft
Przejściowo
od 30 godzina 18 UTC do 30 godzina 19 UTC
Wiatr 10 kt od północny zachód
Przejściowo
od 31 godzina 09 UTC do 31 godzina 18 UTC
Wiatr 12 kt od północny zachód
Przejściowo
od 31 godzina 12 UTC do 31 godzina 18 UTC
słaby deszcz

TAF: LOWG 301715Z 3018/3118 VRB05KT 9999 FEW060 TX16/3111Z TN07/3103Z TEMPO 3018/3019 32010KT TEMPO 3109/3118 32012KT TEMPO 3112/3118 -RA

Obserwacja i prognoza pogody dla ponad 4000 lotnisk (raport METAR i TAF).

Dostępne stacje oznaczono żółtymi i czerwonymi punktami na mapie.

Najedź kursorem aby zobaczyć nazwę stacji.

Kliknij aby zobaczyć obserwacje i prognozy pogody.

Aby zmienić mapę: kliknij na zielony przycisk z czarnym krzyżykiem, aby powiększyć; na zielony przycisk z myślnikiem, aby pomniejszyć; na zielone strzałki, aby przejść do map sąsiednich.


METAR-TAF: